KUIL/UIL METAR and TAF weather

Enter ICAO airport designator
Station Type Date Time Source
KUIL METAR 2021/09/25 03:53 UTC NOAA

KUIL 250353Z AUTO 33005KT 10SM CLR 14/11 A2990 RMK AO2 SLP125 T01440106


Station Type Date Time Source
KUIL Decoded METAR 2021/09/25 03:53 UTC NOAA

QUILLAYUTE STATE AIRPORT, WA, United States (KUIL) 47-56N 124-34W 54M
Sep 24, 2021 - 11:53 PM EDT / 2021.09.25 0353 UTC
Wind: from the NNW (330 degrees) at 6 MPH (5 KT):0
Visibility: 10 mile(s):0
Sky conditions: clear
Temperature: 57.9 F (14.4 C)
Dew Point: 51.1 F (10.6 C)
Relative Humidity: 77%
Pressure (altimeter): 29.9 in. Hg (1012 hPa)
ob: KUIL 250353Z AUTO 33005KT 10SM CLR 14/11 A2990 RMK AO2 SLP125 T01440106
cycle: 4

Station Type Date Time Source
KUIL TAF UTC NOAA

Error!

Example: see airport list